Time;durP1;ratioP1;P1;durP2;ratioP2;P2;SDS_P1;SDS_P2;PMS_P1;PMS_P2;Temp;Humidity;BMP_temperature;BMP_pressure;BME280_temperature;BME280_humidity;BME280_pressure;Samples;Min_cycle;Max_cycle;Signal;HPM_P1;HPM_P2
2023/09/02 00:01:14;;;;;;;16.17;14.98;;;;;;;17.23;100.00;95165.16;4986935;28;20399;-93
2023/09/02 00:03:39;;;;;;;15.85;14.35;;;;;;;17.33;100.00;95162.91;4990234;28;20022;-92
2023/09/02 00:06:05;;;;;;;15.73;14.52;;;;;;;17.24;100.00;95162.31;4987680;28;20076;-89
2023/09/02 00:08:30;;;;;;;15.30;13.93;;;;;;;17.13;100.00;95162.97;4989413;28;20018;-91
2023/09/02 00:10:55;;;;;;;16.25;14.70;;;;;;;17.01;100.00;95166.41;4991207;28;20034;-93
2023/09/02 00:13:21;;;;;;;17.58;13.98;;;;;;;16.91;100.00;95166.84;4992835;28;20022;-93
2023/09/02 00:15:46;;;;;;;16.00;14.60;;;;;;;16.95;100.00;95173.28;4992306;28;20034;-91
2023/09/02 00:18:11;;;;;;;17.60;15.88;;;;;;;16.96;100.00;95168.81;4992116;28;20037;-90
2023/09/02 00:20:37;;;;;;;17.00;14.93;;;;;;;17.14;100.00;95161.97;4992859;28;20635;-92
2023/09/02 00:23:02;;;;;;;16.75;15.38;;;;;;;17.13;100.00;95155.13;4992208;28;20033;-90
2023/09/02 00:25:28;;;;;;;16.58;15.23;;;;;;;17.03;100.00;95164.41;4992831;28;20030;-91
2023/09/02 00:27:53;;;;;;;16.23;14.55;;;;;;;16.95;100.00;95168.06;4991189;28;20456;-90
2023/09/02 00:30:19;;;;;;;17.80;16.25;;;;;;;16.94;100.00;95170.84;4992923;28;20053;-90
2023/09/02 00:32:44;;;;;;;16.42;15.02;;;;;;;16.75;100.00;95169.88;4990488;28;20031;-90
2023/09/02 00:35:10;;;;;;;17.38;15.68;;;;;;;16.73;100.00;95177.91;4992246;28;20496;-90
2023/09/02 00:37:35;;;;;;;17.67;16.00;;;;;;;16.64;100.00;95183.56;4990716;28;20488;-90
2023/09/02 00:40:01;;;;;;;16.73;15.48;;;;;;;16.52;100.00;95182.53;4990418;28;20022;-92
2023/09/02 00:42:28;;;;;;;16.67;15.48;;;;;;;16.50;100.00;95181.94;4992295;28;20435;-91
2023/09/02 00:44:53;;;;;;;17.02;15.60;;;;;;;16.42;100.00;95182.94;4990203;28;20022;-91
2023/09/02 00:47:19;;;;;;;17.13;15.80;;;;;;;16.30;100.00;95187.16;4991286;28;20093;-91
2023/09/02 00:49:44;;;;;;;17.42;16.00;;;;;;;16.26;100.00;95193.78;4990240;28;20105;-92
2023/09/02 00:52:10;;;;;;;17.42;16.05;;;;;;;16.26;100.00;95191.97;4990876;28;20026;-94
2023/09/02 00:54:35;;;;;;;16.38;15.20;;;;;;;16.28;100.00;95186.53;4990289;28;20618;-92
2023/09/02 00:57:01;;;;;;;18.80;17.20;;;;;;;16.33;100.00;95184.94;4991852;28;20029;-93
2023/09/02 00:59:26;;;;;;;17.85;16.55;;;;;;;16.39;100.00;95193.00;4991336;28;20037;-91
2023/09/02 01:01:53;;;;;;;17.67;16.05;;;;;;;16.51;100.00;95192.19;4997358;28;20488;-96
2023/09/02 01:04:21;;;;;;;18.10;16.27;;;;;;;16.49;100.00;95194.22;4995782;28;20096;-96
2023/09/02 01:06:46;;;;;;;18.85;17.05;;;;;;;16.36;100.00;95196.81;4991426;28;20019;-93
2023/09/02 01:09:13;;;;;;;17.63;16.02;;;;;;;16.35;100.00;95196.00;4975022;28;20109;-92
2023/09/02 01:11:38;;;;;;;18.38;16.73;;;;;;;16.30;100.00;95192.38;4989430;28;20076;-92
2023/09/02 01:14:04;;;;;;;17.90;16.63;;;;;;;16.42;100.00;95198.63;4991739;28;20098;-93
2023/09/02 01:16:31;;;;;;;19.42;17.50;;;;;;;16.51;100.00;95186.16;4990015;28;20026;-92
2023/09/02 01:18:57;;;;;;;18.38;16.65;;;;;;;16.43;100.00;95192.41;4990776;28;20030;-90
2023/09/02 01:21:41;;;;;;;18.48;17.05;;;;;;;16.33;100.00;95194.59;4989363;28;20139;-91
2023/09/02 01:24:43;;;;;;;18.83;17.33;;;;;;;16.35;100.00;95189.97;4991451;28;20030;-93
2023/09/02 01:27:30;;;;;;;18.17;16.60;;;;;;;16.18;100.00;95200.00;4991363;28;20059;-94
2023/09/02 01:30:05;;;;;;;20.23;17.15;;;;;;;16.10;100.00;95213.25;4989637;28;20492;-91
2023/09/02 01:32:40;;;;;;;19.35;17.42;;;;;;;16.02;100.00;95210.81;4973419;28;20421;-91
2023/09/02 01:35:06;;;;;;;18.60;17.05;;;;;;;15.94;100.00;95210.19;4973758;28;20116;-93
2023/09/02 01:37:33;;;;;;;19.00;17.40;;;;;;;15.85;100.00;95211.38;4989194;28;20038;-90
2023/09/02 01:39:59;;;;;;;19.30;17.50;;;;;;;15.81;100.00;95210.97;4990170;28;20022;-94
2023/09/02 01:42:25;;;;;;;18.52;16.92;;;;;;;15.82;100.00;95215.19;4989580;28;20037;-93
2023/09/02 01:44:51;;;;;;;19.33;17.45;;;;;;;15.91;100.00;95210.59;4989761;28;20101;-93
2023/09/02 01:47:17;;;;;;;19.25;17.73;;;;;;;16.02;100.00;95205.59;4989901;28;20061;-92
2023/09/02 01:49:45;;;;;;;19.98;17.65;;;;;;;15.99;100.00;95213.81;4990376;28;20062;-91
2023/09/02 01:52:12;;;;;;;18.13;16.73;;;;;;;15.78;100.00;95217.41;4989795;28;20030;-91
2023/09/02 01:54:37;;;;;;;18.88;17.48;;;;;;;15.75;100.00;95219.59;4988916;28;20033;-90
2023/09/02 01:57:03;;;;;;;20.10;18.45;;;;;;;15.65;100.00;95229.59;4990258;28;20027;-91
2023/09/02 01:59:28;;;;;;;19.40;17.83;;;;;;;15.77;100.00;95221.00;4989083;28;20100;-93
2023/09/02 02:01:54;;;;;;;20.33;18.67;;;;;;;15.87;100.00;95218.03;4989824;28;20164;-92
2023/09/02 02:04:46;;;;;;;21.55;19.77;;;;;;;15.82;100.00;95223.84;4990359;28;20031;-92
2023/09/02 02:07:13;;;;;;;20.17;18.30;;;;;;;15.78;100.00;95221.81;4988058;28;20117;-92
2023/09/02 02:09:43;;;;;;;20.42;18.73;;;;;;;15.92;100.00;95226.09;4990777;28;20037;-92
2023/09/02 02:12:08;;;;;;;;;;;;;;;15.72;100.00;95227.81;4989104;28;20030;-93
2023/09/02 02:14:34;;;;;;;19.98;17.95;;;;;;;15.70;100.00;95238.44;4990117;28;19914;-90
2023/09/02 02:17:00;;;;;;;20.77;18.60;;;;;;;15.76;100.00;95242.09;4988497;28;20030;-91
2023/09/02 02:19:26;;;;;;;20.60;18.90;;;;;;;15.64;100.00;95238.41;4990793;28;20076;-91
2023/09/02 02:21:51;;;;;;;20.50;18.83;;;;;;;15.47;100.00;95240.53;4989659;28;20061;-90
2023/09/02 02:24:17;;;;;;;21.83;19.73;;;;;;;15.37;100.00;95247.09;4990038;28;20057;-93
2023/09/02 02:26:42;;;;;;;21.90;19.90;;;;;;;15.25;100.00;95252.06;4992443;28;20162;-91
2023/09/02 02:29:07;;;;;;;20.48;18.88;;;;;;;15.42;100.00;95252.53;4988630;28;20030;-92
2023/09/02 02:31:34;;;;;;;22.10;20.15;;;;;;;15.56;100.00;95256.88;4990544;28;20033;-92
2023/09/02 02:34:00;;;;;;;20.15;18.27;;;;;;;15.64;100.00;95247.06;4989320;28;20085;-92
2023/09/02 02:36:26;;;;;;;20.98;19.00;;;;;;;15.68;100.00;95242.25;4990799;28;20681;-92
2023/09/02 02:38:52;;;;;;;19.60;18.00;;;;;;;15.43;100.00;95248.94;4989348;28;20102;-93
2023/09/02 02:41:17;;;;;;;20.65;18.73;;;;;;;15.42;100.00;95247.31;4972629;28;20571;-93
2023/09/02 02:43:43;;;;;;;21.92;19.83;;;;;;;15.48;100.00;95254.41;4991425;28;20113;-96
2023/09/02 02:46:08;;;;;;;20.75;18.80;;;;;;;15.49;100.00;95248.19;4991259;28;20423;-92
2023/09/02 02:48:34;;;;;;;19.88;18.15;;;;;;;15.46;100.00;95241.53;4990130;28;20072;-93
2023/09/02 02:50:59;;;;;;;21.83;20.00;;;;;;;15.34;100.00;95247.50;4988162;28;20027;-94
2023/09/02 02:53:25;;;;;;;22.30;20.30;;;;;;;15.18;100.00;95252.03;4989372;28;20080;-90
2023/09/02 02:55:50;;;;;;;21.52;19.48;;;;;;;15.11;100.00;95261.59;4987756;28;20173;-92
2023/09/02 02:58:16;;;;;;;23.25;21.17;;;;;;;14.99;100.00;95265.75;4988801;28;20034;-96
2023/09/02 03:00:46;;;;;;;21.80;19.90;;;;;;;14.99;100.00;95272.75;4989081;28;20030;-96
2023/09/02 03:03:12;;;;;;;21.60;19.88;;;;;;;15.01;100.00;95268.97;4988431;28;20030;-94
2023/09/02 03:05:41;;;;;;;22.42;20.55;;;;;;;15.03;100.00;95272.16;4988484;28;20033;-93
2023/09/02 03:08:07;;;;;;;22.10;20.30;;;;;;;15.04;100.00;95265.97;4987529;28;20069;-92
2023/09/02 03:10:35;;;;;;;22.15;20.38;;;;;;;15.03;100.00;95274.78;4988703;28;20034;-94
2023/09/02 03:13:03;;;;;;;21.77;19.65;;;;;;;14.99;100.00;95267.53;4988538;28;20097;-93
2023/09/02 03:15:29;;;;;;;22.73;20.40;;;;;;;15.01;100.00;95282.00;4988487;28;20113;-95
2023/09/02 03:17:54;;;;;;;22.30;20.33;;;;;;;15.10;100.00;95267.81;4988570;28;20385;-94
2023/09/02 03:20:20;;;;;;;22.23;20.20;;;;;;;15.11;100.00;95272.03;4989456;28;20030;-94
2023/09/02 03:22:45;;;;;;;21.27;19.65;;;;;;;15.12;100.00;95281.47;4987702;28;20042;-93
2023/09/02 03:25:11;;;;;;;21.52;19.83;;;;;;;15.05;100.00;95272.00;4988645;28;20104;-94
2023/09/02 03:27:40;;;;;;;22.38;20.30;;;;;;;15.07;100.00;95270.81;4989463;28;20562;-93
2023/09/02 03:30:06;;;;;;;23.52;21.70;;;;;;;14.98;100.00;95265.91;4986870;28;20038;-93
2023/09/02 03:32:32;;;;;;;20.88;19.33;;;;;;;15.02;100.00;95273.19;4989891;28;20539;-94
2023/09/02 03:34:57;;;;;;;21.52;19.60;;;;;;;15.06;100.00;95281.41;4988314;28;20061;-94
2023/09/02 03:37:23;;;;;;;22.00;20.40;;;;;;;15.06;100.00;95274.41;4989399;28;20084;-93
2023/09/02 03:39:49;;;;;;;21.45;19.45;;;;;;;15.08;100.00;95272.44;4987673;28;20022;-94
2023/09/02 03:42:14;;;;;;;23.13;20.55;;;;;;;15.12;100.00;95272.84;4989237;28;20519;-94
2023/09/02 03:44:40;;;;;;;23.35;21.20;;;;;;;14.89;100.00;95278.31;4988674;28;20060;-91
2023/09/02 03:47:05;;;;;;;23.00;20.98;;;;;;;14.65;100.00;95291.72;4986535;28;20030;-91
2023/09/02 03:49:30;;;;;;;22.83;21.02;;;;;;;14.61;100.00;95306.94;4989464;28;20512;-94
2023/09/02 03:51:56;;;;;;;23.45;21.55;;;;;;;14.45;100.00;95306.41;4988309;28;20029;-94
2023/09/02 03:54:21;;;;;;;23.33;21.10;;;;;;;14.62;100.00;95320.78;4988096;28;20173;-95
2023/09/02 03:56:47;;;;;;;22.63;20.65;;;;;;;14.60;100.00;95325.38;4988322;28;20062;-94
2023/09/02 03:59:12;;;;;;;25.42;23.13;;;;;;;14.52;100.00;95322.88;4989038;28;20026;-96
2023/09/02 04:01:37;;;;;;;23.35;21.38;;;;;;;14.61;100.00;95330.41;4989404;28;20332;-95
2023/09/02 04:04:03;;;;;;;22.77;20.98;;;;;;;14.61;100.00;95324.38;4987768;28;20041;-92
2023/09/02 04:06:29;;;;;;;24.23;22.30;;;;;;;14.64;100.00;95329.25;4988987;28;20326;-95
2023/09/02 04:08:55;;;;;;;23.83;21.75;;;;;;;14.75;100.00;95319.09;4987209;28;20045;-94
2023/09/02 04:11:22;;;;;;;23.58;21.58;;;;;;;14.83;100.00;95317.38;4987910;28;20483;-93
2023/09/02 04:13:47;;;;;;;23.75;21.73;;;;;;;14.81;100.00;95321.94;4971133;28;20488;-93
2023/09/02 04:16:13;;;;;;;23.00;21.13;;;;;;;14.79;100.00;95324.75;4988468;28;20033;-92
2023/09/02 04:18:38;;;;;;;24.58;22.20;;;;;;;14.94;100.00;95314.25;4988611;28;20041;-94
2023/09/02 04:21:04;;;;;;;23.63;21.30;;;;;;;15.10;100.00;95303.53;4988380;28;20054;-94
2023/09/02 04:23:30;;;;;;;23.15;21.05;;;;;;;15.14;100.00;95299.56;4987577;28;20057;-93
2023/09/02 04:25:57;;;;;;;23.90;21.50;;;;;;;15.14;100.00;95302.16;4986600;28;20030;-93
2023/09/02 04:28:23;;;;;;;23.20;21.15;;;;;;;15.12;100.00;95291.13;4988776;28;20046;-94
2023/09/02 04:30:48;;;;;;;24.45;22.35;;;;;;;15.28;100.00;95296.06;4987906;28;20539;-93
2023/09/02 04:33:14;;;;;;;21.70;19.80;;;;;;;15.43;100.00;95290.72;4988893;28;20105;-92
2023/09/02 04:35:42;;;;;;;21.85;20.00;;;;;;;15.56;100.00;95286.41;4987597;28;20065;-94
2023/09/02 04:38:07;;;;;;;21.17;19.48;;;;;;;15.67;100.00;95271.97;4987498;28;20109;-93
2023/09/02 04:40:37;;;;;;;20.48;18.70;;;;;;;15.75;100.00;95264.00;4986816;28;20064;-93
2023/09/02 04:43:04;;;;;;;20.50;18.90;;;;;;;15.98;100.00;95255.84;4986782;28;20405;-92
2023/09/02 04:45:33;;;;;;;20.13;18.50;;;;;;;16.85;100.00;95235.69;4988131;28;20093;-90
2023/09/02 04:47:58;;;;;;;502.40;44.72;;;;;;;18.16;100.00;95211.72;4986387;28;20500;-90
2023/09/02 04:50:24;;;;;;;17.13;15.82;;;;;;;18.41;100.00;95207.31;4987086;28;20109;-85
2023/09/02 04:52:50;;;;;;;18.75;16.90;;;;;;;19.01;100.00;95204.25;4987121;28;20126;-85
2023/09/02 04:55:16;;;;;;;19.02;17.52;;;;;;;19.59;100.00;95199.41;4988264;28;20272;-90
2023/09/02 04:57:41;;;;;;;19.70;18.10;;;;;;;19.89;100.00;95200.25;4988307;28;20031;-88
2023/09/02 05:00:07;;;;;;;17.45;15.98;;;;;;;19.98;100.00;95196.28;4990926;28;20026;-87
2023/09/02 05:02:33;;;;;;;18.58;16.95;;;;;;;20.50;100.00;95192.94;4991470;28;20056;-85
2023/09/02 05:04:58;;;;;;;17.45;15.77;;;;;;;20.55;100.00;95194.13;4990926;28;20030;-90
2023/09/02 05:07:23;;;;;;;18.20;15.98;;;;;;;20.88;100.00;95187.28;4991676;28;20026;-89
2023/09/02 05:09:53;;;;;;;19.17;16.98;;;;;;;20.55;100.00;95194.13;4978684;28;20076;-94
2023/09/02 05:12:20;;;;;;;18.23;15.93;;;;;;;20.59;100.00;95192.63;4991552;28;20030;-88
2023/09/02 05:14:45;;;;;;;18.80;14.90;;;;;;;20.91;100.00;95194.72;4990834;28;20326;-93
2023/09/02 05:17:11;;;;;;;16.20;14.82;;;;;;;21.37;100.00;95198.41;4991342;28;20328;-94
2023/09/02 05:19:36;;;;;;;16.73;15.02;;;;;;;21.40;100.00;95198.75;4991792;28;20113;-96
2023/09/02 05:22:03;;;;;;;16.58;15.27;;;;;;;22.03;100.00;95198.72;4992173;28;20030;-93
2023/09/02 05:24:28;;;;;;;16.10;14.93;;;;;;;21.96;100.00;95199.91;4991572;28;20034;-95
2023/09/02 05:26:54;;;;;;;15.65;14.30;;;;;;;22.11;100.00;95202.81;4990594;28;20046;-90
2023/09/02 05:29:20;;;;;;;15.20;14.10;;;;;;;22.63;100.00;95205.31;4991902;28;20436;-89
2023/09/02 05:31:45;;;;;;;16.15;15.20;;;;;;;21.46;100.00;95204.91;4990048;28;20026;-89
2023/09/02 05:34:11;;;;;;;12.98;12.07;;;;;;;22.85;100.00;95195.66;4990255;28;20026;-88
2023/09/02 05:36:36;;;;;;;11.50;10.80;;;;;;;24.00;95.58;95206.25;4989836;28;20033;-88
2023/09/02 05:39:02;;;;;;;12.90;11.98;;;;;;;24.60;89.43;95204.22;4989697;28;20034;-87
2023/09/02 05:41:28;;;;;;;12.77;11.98;;;;;;;24.77;85.65;95206.78;4989768;28;20030;-90
2023/09/02 05:43:53;;;;;;;11.15;10.35;;;;;;;25.22;85.17;95197.59;4990027;28;20446;-89
2023/09/02 05:46:19;;;;;;;11.25;10.60;;;;;;;25.80;82.89;95199.25;4973611;28;20026;-89
2023/09/02 05:48:44;;;;;;;11.73;10.93;;;;;;;26.61;77.06;95192.31;4989745;28;20026;-89
2023/09/02 05:51:10;;;;;;;11.63;10.88;;;;;;;27.28;74.53;95200.03;4991108;28;20116;-87
2023/09/02 05:53:35;;;;;;;10.93;10.32;;;;;;;27.45;71.50;95205.91;4989957;28;20025;-89
2023/09/02 05:56:00;;;;;;;12.05;11.38;;;;;;;28.04;66.15;95202.50;4990480;28;20518;-90
2023/09/02 05:58:27;;;;;;;11.70;10.98;;;;;;;28.34;66.05;95204.25;4988916;28;20496;-90
2023/09/02 06:00:52;;;;;;;13.07;12.20;;;;;;;26.92;70.50;95204.59;4990380;28;20472;-90
2023/09/02 06:03:18;;;;;;;11.45;10.80;;;;;;;27.16;72.49;95204.84;4989516;28;20033;-91
2023/09/02 06:05:43;;;;;;;12.50;11.80;;;;;;;28.12;67.14;95202.78;4988828;28;20033;-88
2023/09/02 06:08:09;;;;;;;13.35;12.32;;;;;;;27.85;65.42;95207.63;4990621;28;20059;-92
2023/09/02 06:10:35;;;;;;;11.90;11.20;;;;;;;27.89;66.39;95207.91;4990097;28;20034;-94
2023/09/02 06:13:01;;;;;;;13.10;12.20;;;;;;;27.71;67.92;95210.06;4990909;28;20041;-89
2023/09/02 06:15:26;;;;;;;12.20;11.40;;;;;;;27.03;71.75;95213.38;4988187;28;20089;-90
2023/09/02 06:17:51;;;;;;;11.85;11.05;;;;;;;26.10;77.06;95217.97;4990542;28;20049;-91
2023/09/02 06:20:20;;;;;;;12.25;11.45;;;;;;;26.41;74.17;95216.22;4972813;28;20484;-92
2023/09/02 06:22:45;;;;;;;11.13;10.45;;;;;;;25.67;78.64;95219.91;4989167;28;20381;-92
2023/09/02 06:25:11;;;;;;;9.95;9.35;;;;;;;26.23;76.83;95222.81;4991876;28;20041;-93
2023/09/02 06:27:37;;;;;;;9.48;8.88;;;;;;;26.42;75.15;95218.63;4988304;28;20070;-88
2023/09/02 06:30:03;;;;;;;9.13;8.52;;;;;;;27.12;72.32;95219.75;4990342;28;20034;-91
2023/09/02 06:32:29;;;;;;;8.27;7.77;;;;;;;29.68;59.59;95230.16;4990116;28;20074;-93
2023/09/02 06:34:54;;;;;;;7.88;7.28;;;;;;;30.63;53.47;95224.72;4990390;28;20467;-88
2023/09/02 06:37:20;;;;;;;7.55;7.10;;;;;;;31.48;51.26;95219.13;4988191;28;20053;-90
2023/09/02 06:39:45;;;;;;;7.03;6.63;;;;;;;31.49;50.53;95220.72;4990468;28;20109;-89
2023/09/02 06:42:10;;;;;;;7.53;6.93;;;;;;;31.65;49.57;95215.91;4991294;28;20030;-94
2023/09/02 06:44:36;;;;;;;9.07;8.53;;;;;;;31.86;49.02;95215.22;4991909;28;20088;-89
2023/09/02 06:47:02;;;;;;;7.97;7.35;;;;;;;32.00;49.53;95217.88;4990850;28;20029;-93
2023/09/02 06:49:31;;;;;;;8.87;8.37;;;;;;;32.71;46.19;95211.88;4989737;28;20022;-95
2023/09/02 06:51:56;;;;;;;8.02;7.43;;;;;;;32.69;46.65;95210.56;4979314;28;20469;-92
2023/09/02 06:54:21;;;;;;;8.73;8.10;;;;;;;33.82;44.29;95213.69;4992310;28;20118;-92
2023/09/02 06:56:47;;;;;;;7.97;7.50;;;;;;;33.83;42.49;95217.97;4991324;28;20030;-91
2023/09/02 06:59:13;;;;;;;7.80;7.40;;;;;;;34.68;41.25;95225.47;4991748;28;20062;-93
2023/09/02 07:01:38;;;;;;;6.97;6.50;;;;;;;34.53;41.37;95225.94;4996083;28;20087;-95
2023/09/02 07:04:03;;;;;;;7.30;6.80;;;;;;;35.05;40.86;95220.56;4993903;28;20029;-94
2023/09/02 07:06:29;;;;;;;6.60;6.30;;;;;;;34.91;40.75;95226.13;4991793;28;20026;-95
2023/09/02 07:08:54;;;;;;;6.03;5.73;;;;;;;34.90;40.89;95230.72;4997794;28;20030;-92
2023/09/02 07:11:20;;;;;;;6.10;5.80;;;;;;;35.00;39.18;95228.84;4992867;28;20034;-91
2023/09/02 07:13:48;;;;;;;6.37;6.07;;;;;;;35.34;38.77;95221.53;4998021;28;20030;-95
2023/09/02 07:16:15;;;;;;;6.25;5.95;;;;;;;35.45;38.71;95227.34;5001127;28;20428;-96
2023/09/02 07:18:40;;;;;;;7.22;6.70;;;;;;;35.24;37.85;95223.75;5000153;28;20042;-94
2023/09/02 07:21:06;;;;;;;6.67;6.27;;;;;;;35.70;38.05;95220.34;4997756;28;20026;-95
2023/09/02 07:23:32;;;;;;;6.88;6.47;;;;;;;35.73;37.25;95220.50;5000292;28;20038;-95
2023/09/02 07:26:01;;;;;;;6.90;6.23;;;;;;;36.06;36.95;95217.22;4994981;28;20045;-93
2023/09/02 07:28:28;;;;;;;6.47;6.07;;;;;;;34.46;39.83;95219.41;4994005;28;20048;-94
2023/09/02 07:30:56;;;;;;;7.35;7.05;;;;;;;34.53;39.19;95217.84;4997793;28;20093;-92
2023/09/02 07:33:21;;;;;;;6.78;6.47;;;;;;;34.38;41.34;95223.69;4997296;28;20030;-96
2023/09/02 07:35:47;;;;;;;7.38;6.97;;;;;;;30.72;48.51;95206.97;5136955;23;20053;-96
2023/09/02 07:43:15;;;;;;;8.25;7.75;;;;;;;28.88;56.05;95198.84;4979394;28;20078;-96
2023/09/02 07:45:40;;;;;;;8.38;7.88;;;;;;;28.17;60.81;95167.28;5328732;22;20054;-96
2023/09/02 07:48:06;;;;;;;10.25;9.40;;;;;;;28.21;59.04;95163.00;5019787;28;20119;-96
2023/09/02 07:50:32;;;;;;;9.48;8.73;;;;;;;28.46;62.13;95180.72;5013545;28;20057;-90
2023/09/02 07:52:58;;;;;;;9.07;8.45;;;;;;;28.81;60.69;95171.69;5021598;28;20006;-96
2023/09/02 07:55:24;;;;;;;9.07;8.38;;;;;;;28.44;59.14;95178.34;5020301;28;20517;-96
2023/09/02 07:57:50;;;;;;;9.07;8.48;;;;;;;28.35;61.22;95214.66;5184997;22;20077;-96
2023/09/02 08:00:15;;;;;;;9.82;9.07;;;;;;;27.36;63.70;95215.44;5012783;28;20073;-96
2023/09/02 08:02:41;;;;;;;8.63;8.02;;;;;;;28.99;60.54;95221.69;5271577;23;20104;-94
2023/09/02 08:05:07;;;;;;;9.27;8.20;;;;;;;29.33;57.37;95222.50;5015469;28;20038;-94
2023/09/02 08:07:32;;;;;;;9.25;8.52;;;;;;;28.86;57.17;95212.47;5017385;28;20026;-96
2023/09/02 08:09:57;;;;;;;7.78;7.28;;;;;;;29.16;58.61;95208.72;5016142;28;20036;-93
2023/09/02 08:12:23;;;;;;;8.80;8.10;;;;;;;29.28;58.17;95214.53;5016217;28;20030;-96
2023/09/02 08:14:48;;;;;;;8.85;8.07;;;;;;;28.95;59.66;95216.13;5012120;28;20036;-96
2023/09/02 08:17:14;;;;;;;8.75;8.15;;;;;;;29.10;58.91;95218.66;5013499;28;20025;-96
2023/09/02 08:19:39;;;;;;;7.47;6.88;;;;;;;29.22;57.57;95213.75;5018171;28;20093;-96
2023/09/02 08:22:05;;;;;;;7.90;7.35;;;;;;;29.25;55.85;95217.78;5009687;28;20030;-87
2023/09/02 08:24:30;;;;;;;7.50;6.80;;;;;;;29.19;57.23;95211.63;5011639;28;20255;-96
2023/09/02 08:26:56;;;;;;;6.72;6.32;;;;;;;29.47;57.49;95209.28;5009802;28;20034;-95
2023/09/02 08:29:21;;;;;;;6.75;6.35;;;;;;;29.38;56.00;95208.31;5009114;28;20038;-90
2023/09/02 08:31:55;;;;;;;6.32;5.93;;;;;;;29.68;55.12;95208.78;5012346;28;20088;-94
2023/09/02 08:34:21;;;;;;;5.97;5.57;;;;;;;29.65;54.95;95214.69;5012413;28;20065;-93
2023/09/02 08:36:46;;;;;;;6.32;5.85;;;;;;;29.75;54.90;95201.22;5015731;28;20026;-96
2023/09/02 08:39:12;;;;;;;7.53;6.30;;;;;;;29.83;54.80;95204.38;5012785;28;20513;-95
2023/09/02 08:41:38;;;;;;;5.97;5.57;;;;;;;29.37;54.27;95212.84;5011852;28;20514;-91
2023/09/02 08:44:04;;;;;;;6.25;5.75;;;;;;;29.59;53.83;95199.81;5013071;28;20157;-94
2023/09/02 08:46:36;;;;;;;6.07;5.60;;;;;;;29.88;53.37;95197.09;5011750;28;20424;-92
2023/09/02 08:49:01;;;;;;;6.35;5.75;;;;;;;30.18;52.76;95196.72;4996136;28;20407;-96
2023/09/02 08:51:27;;;;;;;5.35;4.90;;;;;;;29.96;52.32;95195.69;5012330;28;20022;-91
2023/09/02 08:53:54;;;;;;;5.38;4.97;;;;;;;29.98;52.23;95194.31;5012263;28;20481;-96
2023/09/02 08:56:23;;;;;;;5.32;4.82;;;;;;;30.08;53.11;95191.50;5012932;28;20106;-93
2023/09/02 08:58:49;;;;;;;5.10;4.75;;;;;;;30.52;50.85;95180.50;5012790;28;20522;-94
2023/09/02 09:01:19;;;;;;;4.43;4.13;;;;;;;28.96;51.65;95176.91;5013062;28;20034;-91
2023/09/02 09:03:52;;;;;;;4.15;3.83;;;;;;;29.99;51.69;95184.41;5011673;28;20147;-89
2023/09/02 09:06:22;;;;;;;3.92;3.30;;;;;;;29.10;50.04;95177.81;5012311;28;20487;-85
2023/09/02 09:08:48;;;;;;;3.58;3.28;;;;;;;28.75;52.47;95173.59;5010441;28;20068;-94
2023/09/02 09:11:17;;;;;;;3.78;3.53;;;;;;;29.16;51.62;95172.16;5010986;28;20026;-89
2023/09/02 09:13:46;;;;;;;;;;;;;;;30.03;49.11;95178.19;5011496;28;20454;-86
2023/09/02 09:16:24;;;;;;;3.60;3.30;;;;;;;30.40;48.33;95169.44;5010335;28;19920;-89
2023/09/02 09:18:50;;;;;;;6.22;3.63;;;;;;;30.43;48.23;95173.41;5012522;28;20022;-93
2023/09/02 09:21:19;;;;;;;3.10;2.90;;;;;;;28.76;51.23;95172.53;5010169;28;20033;-88
2023/09/02 09:23:45;;;;;;;3.60;3.30;;;;;;;29.77;49.01;95171.53;5012187;28;20056;-92
2023/09/02 09:26:11;;;;;;;5.25;3.13;;;;;;;29.91;48.54;95177.03;5009721;28;20021;-87
2023/09/02 09:28:58;;;;;;;3.60;3.17;;;;;;;29.80;50.16;95174.44;5010486;28;20029;-86
2023/09/02 09:31:24;;;;;;;3.30;3.10;;;;;;;29.51;48.07;95165.69;4994553;28;20507;-84
2023/09/02 09:34:00;;;;;;;11.40;3.40;;;;;;;30.31;48.92;95158.56;4993756;28;20561;-89
2023/09/02 09:36:29;;;;;;;4.43;3.17;;;;;;;30.97;46.10;95151.47;5012162;28;20377;-87
2023/09/02 09:39:03;;;;;;;2.92;2.55;;;;;;;30.00;46.65;95167.28;5009922;28;20121;-87
2023/09/02 09:41:29;;;;;;;3.80;3.50;;;;;;;28.40;49.21;95155.97;5010330;28;20483;-82
2023/09/02 09:44:05;;;;;;;4.90;3.30;;;;;;;29.10;50.28;95157.28;5009489;28;20025;-85
2023/09/02 09:46:35;;;;;;;3.42;2.95;;;;;;;28.54;50.50;95148.13;4992902;28;20033;-85
2023/09/02 09:49:03;;;;;;;3.17;2.90;;;;;;;27.37;53.30;95149.72;5011518;28;20072;-83
2023/09/02 09:51:29;;;;;;;3.25;3.00;;;;;;;27.48;53.39;95160.13;5010047;28;20034;-85
2023/09/02 09:53:55;;;;;;;3.85;3.00;;;;;;;28.10;54.64;95140.94;5010176;28;20046;-87
2023/09/02 09:56:20;;;;;;;3.90;3.47;;;;;;;28.72;51.01;95145.63;5009095;28;20096;-86
2023/09/02 09:58:46;;;;;;;3.30;3.00;;;;;;;28.62;51.21;95152.84;5011024;28;20115;-85
2023/09/02 10:01:20;;;;;;;5.25;2.97;;;;;;;27.80;50.68;95153.59;5009341;28;20036;-86
2023/09/02 10:03:46;;;;;;;3.05;2.85;;;;;;;28.21;50.44;95141.69;4992159;28;20103;-88
2023/09/02 10:06:11;;;;;;;4.57;3.10;;;;;;;28.32;50.94;95137.88;5011417;28;20030;-88
2023/09/02 10:09:03;;;;;;;3.13;2.92;;;;;;;29.03;48.72;95143.47;5010242;28;20522;-86
2023/09/02 10:11:29;;;;;;;3.20;3.00;;;;;;;28.52;50.79;95148.41;5006073;28;20057;-88
2023/09/02 10:13:57;;;;;;;3.10;2.95;;;;;;;28.56;48.37;95145.97;5008660;28;20034;-85
2023/09/02 10:16:24;;;;;;;3.53;3.23;;;;;;;27.87;49.92;95140.78;5009095;28;20402;-85
2023/09/02 10:18:50;;;;;;;3.55;3.25;;;;;;;28.38;49.97;95134.13;5009606;28;20789;-88
2023/09/02 10:21:16;;;;;;;4.38;3.15;;;;;;;28.53;47.89;95138.53;5010010;28;20026;-88
2023/09/02 10:23:47;;;;;;;3.50;3.20;;;;;;;29.25;48.66;95135.03;5009791;28;20022;-86
2023/09/02 10:26:19;;;;;;;3.60;3.30;;;;;;;29.84;47.22;95133.81;5008250;28;20030;-85
2023/09/02 10:28:46;;;;;;;3.20;3.00;;;;;;;29.73;47.92;95119.78;4993343;28;20037;-85
2023/09/02 10:31:20;;;;;;;3.00;2.78;;;;;;;30.13;46.63;95124.59;5008731;28;20535;-88
2023/09/02 10:33:48;;;;;;;3.13;2.92;;;;;;;30.26;46.06;95129.22;5008876;28;20436;-89
2023/09/02 10:36:17;;;;;;;3.20;3.00;;;;;;;30.01;45.05;95112.75;5010454;28;20037;-87
2023/09/02 10:38:46;;;;;;;5.10;3.20;;;;;;;30.15;44.80;95113.63;4992031;28;20034;-88
2023/09/02 10:41:13;;;;;;;3.20;3.00;;;;;;;29.65;45.24;95120.41;5009346;28;20029;-85
2023/09/02 10:43:40;;;;;;;3.22;3.03;;;;;;;30.32;43.01;95112.03;5008530;28;20567;-87
2023/09/02 10:46:07;;;;;;;3.35;2.92;;;;;;;30.37;44.90;95119.19;5009268;28;20045;-90
2023/09/02 10:48:33;;;;;;;3.10;2.90;;;;;;;30.67;44.82;95118.72;5011194;28;20037;-88
2023/09/02 10:50:59;;;;;;;4.82;3.25;;;;;;;30.74;44.20;95113.00;5009642;28;20040;-89
2023/09/02 10:53:56;;;;;;;3.60;3.30;;;;;;;30.49;43.46;95110.75;5010117;28;20046;-87
2023/09/02 10:56:30;;;;;;;2.97;2.80;;;;;;;30.47;43.45;95116.38;5007587;28;20786;-85
2023/09/02 10:58:56;;;;;;;4.38;3.33;;;;;;;30.13;42.39;95111.25;5010068;28;20029;-87
2023/09/02 11:01:23;;;;;;;3.95;2.90;;;;;;;30.57;42.17;95113.53;5009018;28;20061;-85
2023/09/02 11:03:51;;;;;;;3.50;3.20;;;;;;;29.52;41.94;95107.75;4991681;28;20421;-84
2023/09/02 11:06:17;;;;;;;3.80;3.50;;;;;;;29.10;41.62;95117.25;5007391;28;20022;-86
2023/09/02 11:08:45;;;;;;;3.70;3.50;;;;;;;30.52;41.02;95107.47;5007035;28;20029;-89
2023/09/02 11:11:11;;;;;;;3.10;2.90;;;;;;;31.08;40.78;95105.47;5009461;28;20038;-87
2023/09/02 11:14:08;;;;;;;4.10;3.20;;;;;;;30.89;37.89;95107.38;5006703;28;20022;-88
2023/09/02 11:16:40;;;;;;;4.70;4.32;;;;;;;30.65;38.29;95099.50;5008905;28;20037;-87
2023/09/02 11:19:08;;;;;;;5.47;4.03;;;;;;;29.88;38.08;95092.88;5005423;28;20032;-87
2023/09/02 11:21:41;;;;;;;3.35;3.08;;;;;;;29.66;39.57;95096.09;4990970;28;20033;-87
2023/09/02 11:24:17;;;;;;;4.10;3.80;;;;;;;29.61;40.64;95096.13;5007617;28;20095;-83
2023/09/02 11:27:08;;;;;;;3.80;3.60;;;;;;;29.06;41.90;95102.88;5007446;28;20462;-89